createdAt,value
2023-02-09T00:01:00.347Z,97.65
2023-02-09T00:03:03.085Z,97.31
2023-02-09T00:05:06.367Z,97.48
2023-02-09T00:07:09.058Z,98.06
2023-02-09T00:09:11.927Z,98.27
2023-02-09T00:11:46.872Z,97.96
2023-02-09T00:13:49.499Z,97.62
2023-02-09T00:15:58.069Z,97.85
2023-02-09T00:18:00.731Z,98.27
2023-02-09T00:20:05.553Z,98.36
2023-02-09T00:22:08.320Z,98.21
2023-02-09T00:24:11.916Z,97.69
2023-02-09T00:26:14.490Z,97.77
2023-02-09T00:28:17.347Z,98.09
2023-02-09T00:30:20.267Z,97.99
2023-02-09T00:32:22.989Z,97.68
2023-02-09T00:34:25.651Z,97.55
2023-02-09T00:36:28.862Z,97.59
2023-02-09T00:38:31.671Z,97.93
2023-02-09T00:40:34.459Z,97.60
2023-02-09T00:42:37.100Z,98.08
2023-02-09T00:44:40.546Z,97.86
2023-02-09T00:46:43.441Z,97.64
2023-02-09T00:48:46.129Z,97.41
2023-02-09T00:50:51.109Z,97.30
2023-02-09T00:52:54.106Z,97.73
2023-02-09T00:54:56.775Z,98.36
2023-02-09T00:57:05.395Z,97.83
2023-02-09T00:59:08.122Z,98.06
2023-02-09T01:01:13.705Z,98.33
2023-02-09T01:03:16.600Z,98.21
2023-02-09T01:05:19.297Z,98.13
2023-02-09T01:07:21.945Z,98.26
2023-02-09T01:09:26.121Z,98.24
2023-02-09T01:11:30.020Z,98.19
2023-02-09T01:13:32.617Z,98.31
2023-02-09T01:15:35.302Z,98.67
2023-02-09T01:17:38.743Z,98.81
2023-02-09T01:19:41.558Z,99.30
2023-02-09T01:21:44.207Z,99.26
2023-02-09T01:23:47.944Z,99.26
2023-02-09T01:25:50.639Z,99.00
2023-02-09T01:27:53.404Z,99.64
2023-02-09T01:29:56.104Z,99.31
2023-02-09T01:31:58.806Z,99.55
2023-02-09T01:34:03.906Z,99.59
2023-02-09T01:36:06.966Z,99.13
2023-02-09T01:38:09.660Z,99.45
2023-02-09T01:40:12.621Z,99.75
2023-02-09T01:42:20.319Z,99.51
2023-02-09T01:44:22.882Z,99.46
2023-02-09T01:46:28.817Z,99.32
2023-02-09T01:48:31.670Z,99.06
2023-02-09T01:50:37.607Z,98.93
2023-02-09T01:52:40.653Z,98.80
2023-02-09T01:54:49.617Z,98.19
2023-02-09T01:57:02.726Z,98.45
2023-02-09T01:59:05.713Z,98.07
2023-02-09T02:01:08.404Z,98.89
2023-02-09T02:03:20.348Z,98.30
2023-02-09T02:05:24.455Z,98.21
2023-02-09T02:07:48.028Z,98.16
2023-02-09T02:09:51.219Z,98.07
2023-02-09T02:11:53.940Z,98.15
2023-02-09T02:13:57.791Z,98.03
2023-02-09T02:16:37.760Z,98.28
2023-02-09T02:18:46.183Z,98.33
2023-02-09T02:21:20.859Z,97.66
2023-02-09T02:23:48.679Z,97.64
2023-02-09T02:26:12.248Z,97.63
2023-02-09T02:28:32.264Z,97.69
2023-02-09T02:30:39.810Z,97.51
2023-02-09T02:32:49.350Z,97.44
2023-02-09T02:35:19.017Z,97.35
2023-02-09T02:37:44.764Z,97.06
2023-02-09T02:39:59.440Z,97.42
2023-02-09T02:42:29.707Z,97.14
2023-02-09T02:44:37.811Z,97.32
2023-02-09T02:46:47.000Z,97.56
2023-02-09T02:48:57.745Z,97.65
2023-02-09T02:51:08.580Z,97.97
2023-02-09T02:53:13.862Z,98.02
2023-02-09T02:55:21.257Z,97.83
2023-02-09T02:57:31.038Z,97.84
2023-02-09T02:59:42.770Z,98.06
2023-02-09T03:01:54.880Z,97.57
2023-02-09T03:03:59.610Z,97.20
2023-02-09T03:06:05.717Z,97.89
2023-02-09T03:08:08.380Z,97.79
2023-02-09T03:10:34.827Z,98.08
2023-02-09T03:13:02.527Z,98.09
2023-02-09T03:15:19.960Z,98.22
2023-02-09T03:18:02.944Z,98.46
2023-02-09T03:20:25.625Z,98.14
2023-02-09T03:22:52.487Z,98.24
2023-02-09T03:25:24.316Z,98.23
2023-02-09T03:27:53.905Z,98.37
2023-02-09T03:30:01.063Z,98.30
2023-02-09T03:32:07.534Z,98.85
2023-02-09T03:34:10.752Z,98.76
2023-02-09T03:36:17.033Z,98.37
2023-02-09T03:38:19.717Z,98.05
2023-02-09T03:40:22.455Z,97.52
2023-02-09T03:42:25.070Z,98.08
2023-02-09T03:44:28.049Z,97.86
2023-02-09T03:46:30.659Z,97.34
2023-02-09T03:48:35.397Z,97.28
2023-02-09T03:50:38.873Z,96.92
2023-02-09T03:52:41.480Z,96.99
2023-02-09T03:54:44.509Z,97.45
2023-02-09T03:56:47.219Z,97.36
2023-02-09T03:58:49.904Z,96.90
2023-02-09T04:00:52.559Z,97.47
2023-02-09T04:02:56.198Z,97.43
2023-02-09T04:04:58.812Z,97.17
2023-02-09T04:07:01.700Z,97.14
2023-02-09T04:09:05.850Z,97.24
2023-02-09T04:11:08.658Z,97.75
2023-02-09T04:13:11.303Z,97.26
2023-02-09T04:15:13.956Z,97.71
2023-02-09T04:17:16.867Z,98.01
2023-02-09T04:19:19.666Z,98.10
2023-02-09T04:21:22.605Z,98.05
2023-02-09T04:23:25.354Z,98.02
2023-02-09T04:25:28.065Z,98.15
2023-02-09T04:27:30.724Z,97.99
2023-02-09T04:29:33.336Z,97.97
2023-02-09T04:31:36.171Z,97.66
2023-02-09T04:33:39.332Z,98.03
2023-02-09T04:35:44.292Z,97.65
2023-02-09T04:37:46.938Z,97.60
2023-02-09T04:39:49.520Z,97.47
2023-02-09T04:41:52.175Z,97.25
2023-02-09T04:43:55.029Z,97.11
2023-02-09T04:45:57.832Z,97.26
2023-02-09T04:48:00.510Z,96.79
2023-02-09T04:50:03.650Z,96.97
2023-02-09T04:52:06.348Z,96.46
2023-02-09T04:54:09.017Z,96.57
2023-02-09T04:56:15.418Z,96.48
2023-02-09T04:58:38.484Z,95.88
2023-02-09T05:00:41.161Z,96.17
2023-02-09T05:02:43.909Z,95.56
2023-02-09T05:04:46.591Z,94.49
2023-02-09T05:06:49.198Z,94.71
2023-02-09T05:08:51.968Z,94.76
2023-02-09T05:10:55.715Z,95.30
2023-02-09T05:12:58.284Z,95.51
2023-02-09T05:15:00.935Z,95.31
2023-02-09T05:17:03.596Z,95.06
2023-02-09T05:19:06.288Z,95.12
2023-02-09T05:21:09.089Z,94.65
2023-02-09T05:23:12.228Z,94.83
2023-02-09T05:25:14.817Z,94.91
2023-02-09T05:27:17.508Z,94.79
2023-02-09T05:29:22.016Z,94.26
2023-02-09T05:31:26.184Z,94.18
2023-02-09T05:33:28.913Z,93.76
2023-02-09T05:35:31.834Z,93.61
2023-02-09T05:37:34.628Z,93.81
2023-02-09T05:39:37.215Z,93.70
2023-02-09T05:41:58.600Z,93.47
2023-02-09T05:44:01.205Z,92.93
2023-02-09T05:46:06.395Z,92.22
2023-02-09T05:48:10.552Z,92.34
2023-02-09T05:50:13.192Z,92.08
2023-02-09T05:52:16.903Z,91.64
2023-02-09T05:54:19.547Z,92.28
2023-02-09T05:56:22.765Z,92.50
2023-02-09T05:58:25.374Z,92.21
2023-02-09T06:00:30.001Z,92.46
2023-02-09T06:02:32.662Z,92.08
2023-02-09T06:04:36.048Z,91.98
2023-02-09T06:06:38.806Z,92.29
2023-02-09T06:08:41.370Z,92.09
2023-02-09T06:10:44.302Z,92.13
2023-02-09T06:12:51.437Z,92.05
2023-02-09T06:14:54.193Z,92.74
2023-02-09T06:16:56.885Z,92.22
2023-02-09T06:18:59.708Z,91.87
2023-02-09T06:21:02.475Z,91.97
2023-02-09T06:23:05.234Z,91.42
2023-02-09T06:25:13.297Z,91.43
2023-02-09T06:28:19.904Z,91.75
2023-02-09T06:30:22.676Z,91.47
2023-02-09T06:32:25.300Z,91.61
2023-02-09T06:34:27.978Z,91.91
2023-02-09T06:36:30.532Z,92.26
2023-02-09T06:38:35.231Z,92.02
2023-02-09T06:40:38.101Z,92.38
2023-02-09T06:42:46.931Z,92.24
2023-02-09T06:44:49.529Z,92.05
2023-02-09T06:46:52.221Z,91.56
2023-02-09T06:48:54.902Z,91.72
2023-02-09T06:50:57.732Z,91.79
2023-02-09T06:53:00.937Z,92.08
2023-02-09T06:55:05.606Z,91.93
2023-02-09T06:57:08.325Z,91.39
2023-02-09T06:59:10.919Z,91.57
2023-02-09T07:01:18.247Z,91.20
2023-02-09T07:03:20.983Z,90.97
2023-02-09T07:05:23.683Z,91.07
2023-02-09T07:07:26.659Z,90.60
2023-02-09T07:09:29.340Z,89.63
2023-02-09T07:11:32.115Z,89.43
2023-02-09T07:13:35.266Z,89.29
2023-02-09T07:15:37.909Z,89.69
2023-02-09T07:17:40.912Z,89.88
2023-02-09T07:19:43.514Z,90.17
2023-02-09T07:21:46.073Z,89.18
2023-02-09T07:23:49.979Z,89.10
2023-02-09T07:25:53.147Z,89.74
2023-02-09T07:27:55.936Z,89.75
2023-02-09T07:30:00.795Z,88.55
2023-02-09T07:32:07.703Z,88.87
2023-02-09T07:34:10.360Z,88.84
2023-02-09T07:36:15.704Z,89.29
2023-02-09T07:38:18.448Z,88.62
2023-02-09T07:40:21.240Z,88.16
2023-02-09T07:42:23.933Z,88.43
2023-02-09T07:44:27.615Z,87.77
2023-02-09T07:46:30.279Z,86.53
2023-02-09T07:48:34.027Z,86.23
2023-02-09T07:50:36.684Z,85.67
2023-02-09T07:52:39.373Z,85.73
2023-02-09T07:54:42.011Z,85.34
2023-02-09T07:56:44.651Z,84.25
2023-02-09T07:58:47.398Z,84.85
2023-02-09T08:00:51.444Z,83.86
2023-02-09T08:02:56.485Z,84.01
2023-02-09T08:05:00.898Z,83.80
2023-02-09T08:07:04.058Z,83.89
2023-02-09T08:09:07.919Z,83.17
2023-02-09T08:11:11.672Z,82.07
2023-02-09T08:13:15.426Z,81.82
2023-02-09T08:15:21.401Z,81.98
2023-02-09T08:17:26.158Z,81.92
2023-02-09T08:19:30.171Z,81.84
2023-02-09T08:21:36.744Z,81.18
2023-02-09T08:23:41.628Z,79.89
2023-02-09T08:25:51.990Z,79.95
2023-02-09T08:27:59.023Z,80.14
2023-02-09T08:30:05.278Z,80.10
2023-02-09T08:32:13.320Z,80.31
2023-02-09T08:34:16.808Z,79.29
2023-02-09T08:36:20.938Z,78.44
2023-02-09T08:38:38.433Z,78.67
2023-02-09T08:40:46.912Z,79.39
2023-02-09T08:42:50.711Z,78.55
2023-02-09T08:44:55.338Z,79.32
2023-02-09T08:46:59.051Z,78.36
2023-02-09T08:49:02.119Z,78.64
2023-02-09T08:51:06.958Z,78.87
2023-02-09T08:53:10.568Z,78.15
2023-02-09T08:55:28.968Z,78.37
2023-02-09T08:57:44.357Z,78.44
2023-02-09T08:59:51.326Z,78.41
2023-02-09T09:01:56.018Z,77.31
2023-02-09T09:03:59.848Z,77.65
2023-02-09T09:06:07.902Z,77.91
2023-02-09T09:08:10.540Z,76.67
2023-02-09T09:10:13.911Z,76.99
2023-02-09T09:12:16.596Z,77.39
2023-02-09T09:14:19.192Z,77.38
2023-02-09T09:16:23.321Z,77.94
2023-02-09T09:18:26.493Z,78.39
2023-02-09T09:20:29.196Z,77.98
2023-02-09T09:22:31.820Z,77.86
2023-02-09T09:24:40.664Z,77.47
2023-02-09T09:26:43.601Z,77.46
2023-02-09T09:28:51.182Z,76.84
2023-02-09T09:30:53.934Z,77.20
2023-02-09T09:32:56.693Z,78.23
2023-02-09T09:34:59.991Z,77.11
2023-02-09T09:37:02.634Z,77.22
2023-02-09T09:39:05.322Z,76.70
2023-02-09T09:41:24.666Z,76.42
2023-02-09T09:43:39.872Z,77.26
2023-02-09T09:45:42.958Z,78.01
2023-02-09T09:47:45.828Z,78.62
2023-02-09T09:49:49.518Z,77.82
2023-02-09T09:52:31.822Z,77.51
2023-02-09T09:54:36.395Z,77.39
2023-02-09T09:56:39.206Z,76.68
2023-02-09T09:58:43.998Z,77.32
2023-02-09T10:00:46.933Z,76.14
2023-02-09T10:02:49.648Z,77.25
2023-02-09T10:04:52.466Z,76.36
2023-02-09T10:07:02.360Z,77.15
2023-02-09T10:09:15.233Z,77.03
2023-02-09T10:11:29.188Z,77.71
2023-02-09T10:13:40.551Z,78.07
2023-02-09T10:15:51.281Z,78.56
2023-02-09T10:17:57.641Z,78.02
2023-02-09T10:20:08.156Z,78.40
2023-02-09T10:22:13.984Z,77.74
2023-02-09T10:24:26.359Z,77.29
2023-02-09T10:26:31.967Z,77.60
2023-02-09T10:28:48.077Z,76.43
2023-02-09T10:30:57.526Z,77.58
2023-02-09T10:33:02.771Z,77.59
2023-02-09T10:35:43.127Z,77.15
2023-02-09T10:37:46.478Z,76.76
2023-02-09T10:40:01.385Z,77.18
2023-02-09T10:42:34.490Z,76.58
2023-02-09T10:44:40.229Z,76.71
2023-02-09T10:46:43.051Z,77.40
2023-02-09T10:48:47.296Z,77.35
2023-02-09T10:51:07.400Z,77.22
2023-02-09T10:53:24.654Z,76.21
2023-02-09T10:55:37.578Z,76.84
2023-02-09T10:57:40.286Z,77.00
2023-02-09T10:59:42.849Z,75.81
2023-02-09T11:01:56.817Z,76.51
2023-02-09T11:04:06.233Z,76.18
2023-02-09T11:06:20.176Z,76.15
2023-02-09T11:08:24.790Z,75.90
2023-02-09T11:10:38.290Z,76.02
2023-02-09T11:12:41.003Z,75.51
2023-02-09T11:14:43.858Z,76.08
2023-02-09T11:17:00.889Z,76.73
2023-02-09T11:19:15.403Z,76.28
2023-02-09T11:21:45.771Z,76.68
2023-02-09T11:24:07.349Z,77.15
2023-02-09T11:26:46.427Z,77.04
2023-02-09T11:29:01.599Z,75.83
2023-02-09T11:31:24.181Z,76.82
2023-02-09T11:33:42.132Z,77.63
2023-02-09T11:36:15.644Z,77.42
2023-02-09T11:38:27.722Z,77.42
2023-02-09T11:40:45.279Z,77.47
2023-02-09T11:43:11.519Z,78.41
2023-02-09T11:45:20.260Z,79.05
2023-02-09T11:47:42.324Z,79.12
2023-02-09T11:49:49.366Z,78.68
2023-02-09T11:51:55.888Z,78.31
2023-02-09T11:54:04.275Z,78.38
2023-02-09T11:56:11.804Z,78.92
2023-02-09T11:58:47.675Z,79.04
2023-02-09T12:01:10.027Z,79.15
2023-02-09T12:03:17.265Z,78.61
2023-02-09T12:05:21.608Z,79.65
2023-02-09T12:07:48.951Z,79.66
2023-02-09T12:10:25.376Z,79.79
2023-02-09T12:12:49.655Z,80.11
2023-02-09T12:15:23.025Z,80.24
2023-02-09T12:17:38.583Z,79.83
2023-02-09T12:19:46.731Z,80.49
2023-02-09T12:21:49.353Z,80.25
2023-02-09T12:23:51.960Z,81.08
2023-02-09T12:25:55.804Z,81.16
2023-02-09T12:28:37.153Z,81.03
2023-02-09T12:30:42.816Z,81.09
2023-02-09T12:32:45.604Z,81.11
2023-02-09T12:34:51.355Z,81.72
2023-02-09T12:37:13.446Z,82.06
2023-02-09T12:39:23.724Z,82.54
2023-02-09T12:41:28.674Z,82.82
2023-02-09T12:43:33.456Z,82.55
2023-02-09T12:45:38.442Z,82.43
2023-02-09T12:47:57.183Z,83.45
2023-02-09T12:50:04.781Z,83.62
2023-02-09T12:52:17.399Z,84.00
2023-02-09T12:54:41.815Z,84.19
2023-02-09T12:56:44.554Z,83.53
2023-02-09T12:58:49.889Z,84.22
2023-02-09T13:00:55.434Z,84.52
2023-02-09T13:03:10.910Z,84.51
2023-02-09T13:05:22.679Z,84.50
2023-02-09T13:07:33.175Z,85.29
2023-02-09T13:09:39.512Z,85.17
2023-02-09T13:11:52.103Z,85.38
2023-02-09T13:14:04.448Z,85.78
2023-02-09T13:16:37.264Z,86.19
2023-02-09T13:18:45.903Z,86.28
2023-02-09T13:21:06.201Z,86.38
2023-02-09T13:23:34.203Z,86.83
2023-02-09T13:25:39.699Z,86.55
2023-02-09T13:27:49.940Z,86.83
2023-02-09T13:29:57.791Z,87.06
2023-02-09T13:32:28.632Z,87.42
2023-02-09T13:35:01.450Z,87.31
2023-02-09T13:37:23.289Z,87.48
2023-02-09T13:39:27.417Z,86.99
2023-02-09T13:41:38.148Z,86.94
2023-02-09T13:43:41.748Z,87.05
2023-02-09T13:45:53.381Z,87.12
2023-02-09T13:47:59.488Z,87.08
2023-02-09T13:50:03.847Z,86.93
2023-02-09T13:52:22.365Z,87.18
2023-02-09T13:54:24.924Z,87.61
2023-02-09T13:56:46.497Z,87.60
2023-02-09T13:58:49.695Z,87.27
2023-02-09T14:00:56.090Z,87.38
2023-02-09T14:03:12.488Z,87.39
2023-02-09T14:05:27.626Z,87.19
2023-02-09T14:07:35.288Z,87.53
2023-02-09T14:09:56.825Z,87.39
2023-02-09T14:12:45.718Z,87.43
2023-02-09T14:15:15.034Z,87.90
2023-02-09T14:17:28.544Z,88.42
2023-02-09T14:19:32.402Z,88.18
2023-02-09T14:21:40.654Z,88.68
2023-02-09T14:24:05.442Z,88.57
2023-02-09T14:26:24.569Z,89.05
2023-02-09T14:28:27.275Z,89.03
2023-02-09T14:30:32.911Z,89.18
2023-02-09T14:32:38.370Z,88.84
2023-02-09T14:34:41.020Z,89.21
2023-02-09T14:36:52.502Z,89.36
2023-02-09T14:39:10.922Z,89.57
2023-02-09T14:41:19.719Z,89.09
2023-02-09T14:43:27.809Z,89.36
2023-02-09T14:45:35.175Z,88.89
2023-02-09T14:47:39.692Z,88.89
2023-02-09T14:49:42.349Z,89.30
2023-02-09T14:51:45.940Z,88.82
2023-02-09T14:53:50.177Z,89.10
2023-02-09T14:55:55.178Z,89.68
2023-02-09T14:57:57.758Z,89.29
2023-02-09T15:00:00.399Z,89.27
2023-02-09T15:02:26.136Z,89.26
2023-02-09T15:04:28.740Z,89.16
2023-02-09T15:06:34.930Z,89.29
2023-02-09T15:08:39.175Z,89.34
2023-02-09T15:10:55.419Z,89.01
2023-02-09T15:12:59.210Z,89.18
2023-02-09T15:15:02.448Z,89.20
2023-02-09T15:17:14.043Z,89.67
2023-02-09T15:19:21.533Z,89.15
2023-02-09T15:21:24.291Z,89.94
2023-02-09T15:23:26.940Z,89.91
2023-02-09T15:25:29.849Z,89.69
2023-02-09T15:27:51.382Z,89.64
2023-02-09T15:29:57.907Z,90.07
2023-02-09T15:32:01.659Z,89.75
2023-02-09T15:34:05.768Z,90.48
2023-02-09T15:36:14.495Z,90.28
2023-02-09T15:38:18.484Z,90.08
2023-02-09T15:40:52.968Z,89.97
2023-02-09T15:43:14.004Z,89.98
2023-02-09T15:45:38.283Z,89.99
2023-02-09T15:47:49.814Z,90.34
2023-02-09T15:49:52.498Z,90.26
2023-02-09T15:51:55.274Z,90.01
2023-02-09T15:53:59.642Z,90.25
2023-02-09T15:56:02.524Z,90.13
2023-02-09T15:58:19.421Z,90.28
2023-02-09T16:00:27.694Z,90.17
2023-02-09T16:02:30.407Z,90.16
2023-02-09T16:04:33.049Z,90.21
2023-02-09T16:06:35.990Z,90.45
2023-02-09T16:08:38.853Z,90.41
2023-02-09T16:10:41.469Z,90.67
2023-02-09T16:12:44.109Z,90.44
2023-02-09T16:14:46.811Z,90.32
2023-02-09T16:16:49.927Z,90.38
2023-02-09T16:18:52.599Z,90.81
2023-02-09T16:20:55.317Z,90.40
2023-02-09T16:23:11.779Z,90.91
2023-02-09T16:25:24.069Z,90.51
2023-02-09T16:27:28.731Z,91.08
2023-02-09T16:29:31.355Z,90.36
2023-02-09T16:31:34.036Z,90.63
2023-02-09T16:33:38.915Z,90.56
2023-02-09T16:35:42.148Z,91.00
2023-02-09T16:37:46.920Z,90.89
2023-02-09T16:39:50.172Z,91.04
2023-02-09T16:41:54.298Z,90.63
2023-02-09T16:43:57.092Z,91.22
2023-02-09T16:46:04.494Z,90.87
2023-02-09T16:48:15.577Z,90.75
2023-02-09T16:50:35.775Z,90.64
2023-02-09T16:52:39.431Z,90.91
2023-02-09T16:54:50.444Z,91.09
2023-02-09T16:56:54.595Z,90.85
2023-02-09T16:58:57.477Z,90.66
2023-02-09T17:01:01.820Z,90.77
2023-02-09T17:03:32.149Z,90.63
2023-02-09T17:05:37.298Z,90.58
2023-02-09T17:07:53.616Z,90.63
2023-02-09T17:09:57.684Z,90.60
2023-02-09T17:12:00.283Z,90.29
2023-02-09T17:14:02.838Z,90.67
2023-02-09T17:16:07.171Z,90.64
2023-02-09T17:18:16.931Z,90.90
2023-02-09T17:20:23.259Z,90.64
2023-02-09T17:22:25.959Z,91.21
2023-02-09T17:24:28.493Z,91.00
2023-02-09T17:26:31.714Z,91.04
2023-02-09T17:28:34.660Z,90.99
2023-02-09T17:30:37.975Z,91.55
2023-02-09T17:32:40.743Z,91.05
2023-02-09T17:34:43.434Z,91.53
2023-02-09T17:36:46.256Z,91.39
2023-02-09T17:38:49.006Z,91.35
2023-02-09T17:40:53.406Z,91.50
2023-02-09T17:42:56.640Z,91.60
2023-02-09T17:44:59.290Z,91.48
2023-02-09T17:47:03.556Z,91.53
2023-02-09T17:49:06.217Z,91.56
2023-02-09T17:51:30.561Z,92.27
2023-02-09T17:53:35.114Z,91.69
2023-02-09T17:55:37.689Z,92.21
2023-02-09T17:57:41.736Z,91.92
2023-02-09T17:59:44.491Z,92.62
2023-02-09T18:01:50.490Z,92.07
2023-02-09T18:03:57.972Z,92.40
2023-02-09T18:06:03.185Z,92.69
2023-02-09T18:08:05.858Z,92.51
2023-02-09T18:10:08.471Z,92.68
2023-02-09T18:12:19.885Z,92.25
2023-02-09T18:14:24.317Z,92.35
2023-02-09T18:16:27.509Z,92.46
2023-02-09T18:18:30.268Z,92.28
2023-02-09T18:20:34.561Z,92.45
2023-02-09T18:22:37.172Z,92.58
2023-02-09T18:24:39.912Z,92.33
2023-02-09T18:26:43.234Z,92.60
2023-02-09T18:28:45.960Z,92.56
2023-02-09T18:30:48.644Z,92.63
2023-02-09T18:32:51.520Z,92.83
2023-02-09T18:34:54.175Z,92.81
2023-02-09T18:36:57.327Z,92.72
2023-02-09T18:39:00.226Z,92.78
2023-02-09T18:41:02.945Z,92.64
2023-02-09T18:43:07.192Z,92.62
2023-02-09T18:45:13.112Z,92.49
2023-02-09T18:47:16.117Z,92.15
2023-02-09T18:49:19.044Z,92.74
2023-02-09T18:51:22.151Z,92.69
2023-02-09T18:53:24.786Z,92.22
2023-02-09T18:55:30.896Z,92.12
2023-02-09T18:57:33.536Z,92.00
2023-02-09T18:59:36.417Z,92.16
2023-02-09T19:01:39.955Z,92.14
2023-02-09T19:03:42.800Z,91.89
2023-02-09T19:05:45.604Z,92.29
2023-02-09T19:07:49.433Z,91.90
2023-02-09T19:09:55.072Z,91.95
2023-02-09T19:11:57.795Z,91.88
2023-02-09T19:14:18.895Z,92.15
2023-02-09T19:16:21.599Z,92.06
2023-02-09T19:18:24.165Z,91.51
2023-02-09T19:20:29.363Z,92.02
2023-02-09T19:22:32.483Z,92.21
2023-02-09T19:24:35.199Z,92.69
2023-02-09T19:26:37.902Z,92.44
2023-02-09T19:28:40.584Z,92.48
2023-02-09T19:30:43.557Z,92.48
2023-02-09T19:32:46.172Z,92.86
2023-02-09T19:34:50.037Z,92.89
2023-02-09T19:36:52.937Z,92.83
2023-02-09T19:38:56.528Z,92.42
2023-02-09T19:41:10.388Z,92.77
2023-02-09T19:43:13.581Z,92.97
2023-02-09T19:45:16.506Z,93.16
2023-02-09T19:47:25.782Z,93.04
2023-02-09T19:49:29.029Z,93.50
2023-02-09T19:51:31.602Z,93.08
2023-02-09T19:53:34.815Z,93.26
2023-02-09T19:55:37.364Z,93.33
2023-02-09T19:57:40.028Z,93.73
2023-02-09T19:59:42.579Z,93.23
2023-02-09T20:01:45.244Z,93.53
2023-02-09T20:03:49.685Z,93.52
2023-02-09T20:05:52.420Z,93.79
2023-02-09T20:07:55.062Z,93.73
2023-02-09T20:09:58.280Z,93.42
2023-02-09T20:12:01.063Z,93.04
2023-02-09T20:14:05.631Z,92.96
2023-02-09T20:16:10.150Z,92.76
2023-02-09T20:18:14.869Z,92.93
2023-02-09T20:20:19.926Z,93.22
2023-02-09T20:22:22.616Z,92.78
2023-02-09T20:24:25.431Z,93.05
2023-02-09T20:26:30.475Z,93.04
2023-02-09T20:28:33.127Z,93.27
2023-02-09T20:30:35.889Z,93.30
2023-02-09T20:32:38.699Z,93.41
2023-02-09T20:34:42.161Z,93.72
2023-02-09T20:36:46.944Z,93.52
2023-02-09T20:38:49.579Z,92.68
2023-02-09T20:40:52.262Z,92.80
2023-02-09T20:43:13.465Z,92.95
2023-02-09T20:45:36.174Z,93.01
2023-02-09T20:47:38.780Z,93.02
2023-02-09T20:49:41.402Z,93.02
2023-02-09T20:51:45.995Z,93.27
2023-02-09T20:53:48.645Z,92.55
2023-02-09T20:55:51.303Z,92.64
2023-02-09T20:57:53.905Z,92.62
2023-02-09T21:00:01.009Z,93.18
2023-02-09T21:02:03.790Z,93.17
2023-02-09T21:04:07.525Z,93.13
2023-02-09T21:06:10.290Z,93.47
2023-02-09T21:08:12.904Z,93.47
2023-02-09T21:10:16.229Z,93.28
2023-02-09T21:12:19.597Z,93.49
2023-02-09T21:14:32.323Z,93.22
2023-02-09T21:16:42.790Z,93.71
2023-02-09T21:18:45.976Z,93.46
2023-02-09T21:20:49.311Z,93.44
2023-02-09T21:22:52.239Z,93.65
2023-02-09T21:24:54.813Z,93.50
2023-02-09T21:26:57.499Z,93.27
2023-02-09T21:29:00.112Z,93.16
2023-02-09T21:31:02.954Z,93.36
2023-02-09T21:33:05.608Z,93.44
2023-02-09T21:35:10.491Z,93.56
2023-02-09T21:37:14.155Z,93.36
2023-02-09T21:39:16.811Z,93.77
2023-02-09T21:41:40.580Z,93.41
2023-02-09T21:43:43.447Z,93.46
2023-02-09T21:45:46.089Z,93.97
2023-02-09T21:47:48.733Z,93.59
2023-02-09T21:49:51.479Z,93.28
2023-02-09T21:51:54.127Z,93.80
2023-02-09T21:53:57.430Z,93.62
2023-02-09T21:56:00.058Z,93.83
2023-02-09T21:58:02.690Z,93.53
2023-02-09T22:00:09.100Z,93.82
2023-02-09T22:02:16.339Z,93.34
2023-02-09T22:04:19.006Z,93.63
2023-02-09T22:06:21.553Z,93.31
2023-02-09T22:08:24.212Z,93.38
2023-02-09T22:10:26.776Z,93.72
2023-02-09T22:12:29.530Z,93.42
2023-02-09T22:14:32.744Z,93.20
2023-02-09T22:16:35.380Z,93.53
2023-02-09T22:18:38.034Z,93.53
2023-02-09T22:20:44.446Z,93.54
2023-02-09T22:22:47.203Z,93.39
2023-02-09T22:24:49.842Z,93.71
2023-02-09T22:26:52.739Z,93.24
2023-02-09T22:28:55.347Z,93.31
2023-02-09T22:30:57.998Z,93.41
2023-02-09T22:33:01.714Z,94.23
2023-02-09T22:35:04.478Z,93.62
2023-02-09T22:37:07.212Z,93.20
2023-02-09T22:39:10.206Z,93.79
2023-02-09T22:41:24.299Z,93.74
2023-02-09T22:43:27.279Z,94.04
2023-02-09T22:45:29.933Z,94.03
2023-02-09T22:47:33.266Z,93.95
2023-02-09T22:49:35.848Z,93.89
2023-02-09T22:51:38.490Z,93.65
2023-02-09T22:53:41.129Z,93.75
2023-02-09T22:55:46.530Z,93.59
2023-02-09T22:57:49.269Z,94.27
2023-02-09T22:59:51.970Z,94.21
2023-02-09T23:01:54.705Z,94.05
2023-02-09T23:03:57.993Z,94.24
2023-02-09T23:06:05.630Z,94.18
2023-02-09T23:08:08.223Z,94.00
2023-02-09T23:10:10.921Z,93.84
2023-02-09T23:12:13.645Z,93.86
2023-02-09T23:14:16.444Z,93.97
2023-02-09T23:16:22.172Z,93.84
2023-02-09T23:18:24.799Z,94.57
2023-02-09T23:20:27.417Z,94.57
2023-02-09T23:22:30.008Z,94.38
2023-02-09T23:24:32.938Z,94.27
2023-02-09T23:26:36.120Z,94.76
2023-02-09T23:28:38.803Z,94.55
2023-02-09T23:30:41.490Z,94.38
2023-02-09T23:32:44.146Z,94.93
2023-02-09T23:34:46.781Z,94.74
2023-02-09T23:36:49.431Z,94.70
2023-02-09T23:38:54.909Z,94.32
2023-02-09T23:40:57.665Z,94.60
2023-02-09T23:43:00.482Z,94.45
2023-02-09T23:45:03.272Z,94.71
2023-02-09T23:47:07.374Z,94.87
2023-02-09T23:49:10.308Z,95.10
2023-02-09T23:51:19.352Z,94.98
2023-02-09T23:53:22.038Z,94.85
2023-02-09T23:55:24.665Z,95.08
2023-02-09T23:57:27.266Z,95.19
2023-02-09T23:59:29.967Z,95.37
